Terminal Aerodrome Forecast
Issued by NWS

Home | Current Version | Previous Version | Graphics & Text | Print | Product List | Glossary On
Versions: 1 2 3 4 5 6 7 8 9 10 11 12 13 14 15 16 17 18 19
357
FTUS43 KGRB 172058 AAB
TAFCWA
TAF AMD
KCWA 172058Z 1721/1818 27013G20KT P6SM VCSH SCT015 BKN028
     FM180200 30010G17KT P6SM OVC008
     FM181300 30011G18KT P6SM BKN015
     FM181500 30011G18KT P6SM SCT025 BKN040=

USA.gov is the U.S. government's official web portal to all federal, state and local government web resources and services.